Time;durP1;ratioP1;P1;durP2;ratioP2;P2;SDS_P1;SDS_P2;PMS_P1;PMS_P2;Temp;Humidity;BMP_temperature;BMP_pressure;BME280_temperature;BME280_humidity;BME280_pressure;Samples;Min_cycle;Max_cycle;Signal;HPM_P1;HPM_P2
2021/12/18 00:01:06;;;;;;;23.35;10.25;;;;;;;8.11;94.13;103786.53;5002354;28;20073;-71
2021/12/18 00:03:34;;;;;;;17.33;8.73;;;;;;;8.14;94.89;103770.78;4994501;28;20042;-73
2021/12/18 00:06:01;;;;;;;22.55;10.43;;;;;;;8.15;94.15;103777.78;5001621;28;20061;-72
2021/12/18 00:08:28;;;;;;;21.38;9.35;;;;;;;8.17;95.27;103781.19;4993193;28;20130;-72
2021/12/18 00:10:55;;;;;;;20.13;8.63;;;;;;;8.19;95.38;103774.19;5000613;28;20124;-73
2021/12/18 00:13:22;;;;;;;22.05;9.70;;;;;;;8.23;95.01;103781.09;4980863;28;20045;-71
2021/12/18 00:15:50;;;;;;;28.83;10.68;;;;;;;8.27;94.28;103780.09;5009585;28;20104;-72
2021/12/18 00:18:17;;;;;;;22.90;10.70;;;;;;;8.30;94.18;103777.44;4998675;28;20053;-72
2021/12/18 00:20:44;;;;;;;25.48;11.60;;;;;;;8.30;94.07;103780.06;5000487;28;20049;-72
2021/12/18 00:23:11;;;;;;;22.15;10.88;;;;;;;8.33;93.22;103772.09;5004355;28;20046;-71
2021/12/18 00:25:38;;;;;;;22.20;9.45;;;;;;;8.39;93.67;103771.13;5009270;28;20034;-73
2021/12/18 00:28:06;;;;;;;21.08;9.95;;;;;;;8.28;94.16;103773.97;5009689;28;20073;-73
2021/12/18 00:30:34;;;;;;;26.65;11.73;;;;;;;8.19;94.71;103774.19;5019033;28;20105;-73
2021/12/18 00:33:02;;;;;;;20.67;8.18;;;;;;;8.14;95.83;103768.16;5015435;28;20053;-72
2021/12/18 00:35:29;;;;;;;21.63;8.60;;;;;;;8.12;96.03;103772.56;4997855;28;20073;-72
2021/12/18 00:37:55;;;;;;;19.83;8.40;;;;;;;8.08;96.23;103775.25;5001980;28;20088;-73
2021/12/18 00:40:25;;;;;;;17.92;7.70;;;;;;;8.06;96.06;103762.22;4990947;28;20081;-73
2021/12/18 00:42:58;;;;;;;19.92;7.85;;;;;;;8.05;96.99;103768.34;4998635;28;20046;-73
2021/12/18 00:45:25;;;;;;;18.05;6.65;;;;;;;8.05;97.02;103770.09;5000890;28;20038;-72
2021/12/18 00:47:52;;;;;;;21.83;6.82;;;;;;;8.06;96.60;103775.31;4996324;28;20045;-73
2021/12/18 00:50:24;;;;;;;13.50;6.53;;;;;;;8.05;96.43;103778.81;4978666;28;20141;-72
2021/12/18 00:52:50;;;;;;;15.52;7.10;;;;;;;8.02;96.91;103773.63;4982769;28;20136;-70
2021/12/18 00:55:19;;;;;;;13.90;6.18;;;;;;;8.01;97.21;103773.69;4998126;28;20060;-73
2021/12/18 00:57:46;;;;;;;14.95;5.45;;;;;;;7.97;97.08;103761.53;4997281;28;20041;-73
2021/12/18 01:00:16;;;;;;;16.15;7.45;;;;;;;8.00;97.23;103764.94;4995759;28;20077;-73
2021/12/18 01:02:44;;;;;;;16.95;6.65;;;;;;;8.01;97.48;103768.44;4991211;28;20037;-73
2021/12/18 01:05:12;;;;;;;14.20;6.13;;;;;;;7.96;97.07;103763.28;4993781;28;20044;-72
2021/12/18 01:07:40;;;;;;;14.60;6.13;;;;;;;7.93;98.05;103763.34;4994858;28;20054;-73
2021/12/18 01:10:22;;;;;;;14.95;6.25;;;;;;;7.97;97.29;103767.66;4991978;28;20042;-73
2021/12/18 01:12:51;;;;;;;21.15;6.95;;;;;;;7.94;97.37;103767.69;4976763;28;20079;-73
2021/12/18 01:15:23;;;;;;;13.52;5.90;;;;;;;7.94;97.10;103767.69;5011621;28;20057;-72
2021/12/18 01:23:17;;;;;;;12.82;5.28;;;;;;;7.93;97.25;103772.09;4993967;28;20499;-73
2021/12/18 01:25:44;;;;;;;17.95;5.90;;;;;;;7.90;97.58;103767.78;5000025;28;20060;-73
2021/12/18 01:28:11;;;;;;;16.05;6.32;;;;;;;7.89;97.76;103766.06;4975528;28;20057;-71
2021/12/18 01:30:41;;;;;;;11.65;4.88;;;;;;;7.85;98.06;103760.91;4997927;28;20045;-73
2021/12/18 01:33:07;;;;;;;15.68;5.90;;;;;;;7.86;97.29;103770.50;4999367;28;20069;-71
2021/12/18 01:35:34;;;;;;;14.02;6.18;;;;;;;7.82;97.56;103759.22;4994922;28;20448;-73
2021/12/18 01:38:01;;;;;;;13.98;5.72;;;;;;;7.84;98.09;103769.69;4994005;28;20090;-71
2021/12/18 01:40:29;;;;;;;9.98;4.22;;;;;;;7.83;97.91;103770.56;4993837;28;20136;-73
2021/12/18 01:44:03;;;;;;;18.70;6.75;;;;;;;7.80;97.49;103773.25;4979405;28;20042;-73
2021/12/18 01:46:33;;;;;;;15.18;6.03;;;;;;;7.79;98.27;103769.78;4993959;28;20056;-72
2021/12/18 01:52:01;;;;;;;20.05;6.60;;;;;;;7.81;97.76;103774.97;4992398;28;20574;-72
2021/12/18 01:54:27;;;;;;;18.13;6.68;;;;;;;7.82;98.19;103771.47;4999158;28;20045;-73
2021/12/18 01:57:13;;;;;;;16.83;7.15;;;;;;;7.76;97.69;103761.97;4997595;28;20412;-72
2021/12/18 01:59:45;;;;;;;23.40;7.30;;;;;;;7.77;98.37;103770.66;4989002;28;20038;-71
2021/12/18 02:02:12;;;;;;;15.63;5.50;;;;;;;7.76;97.97;103774.19;4992723;28;20041;-71
2021/12/18 02:04:40;;;;;;;15.60;7.18;;;;;;;7.76;98.01;103771.56;4997521;28;20045;-75
2021/12/18 02:07:07;;;;;;;22.58;8.07;;;;;;;7.76;98.22;103774.19;5009666;28;20111;-74
2021/12/18 02:09:52;;;;;;;19.65;7.53;;;;;;;7.78;97.94;103772.41;4999133;28;20069;-73
2021/12/18 02:12:25;;;;;;;26.20;8.05;;;;;;;7.83;97.76;103767.97;4996177;28;20111;-72
2021/12/18 02:20:26;;;;;;;11.63;5.22;;;;;;;7.74;97.53;103762.91;4994646;28;20050;-73
2021/12/18 02:22:54;;;;;;;16.88;6.25;;;;;;;7.72;97.38;103764.69;4993685;28;20045;-72
2021/12/18 02:25:23;;;;;;;20.90;6.32;;;;;;;7.74;97.06;103760.28;4997900;28;20041;-72
2021/12/18 02:27:51;;;;;;;18.45;6.47;;;;;;;7.71;97.26;103761.22;4980921;28;20137;-72
2021/12/18 02:30:20;;;;;;;13.13;5.78;;;;;;;7.68;97.57;103766.50;4997594;28;20053;-74
2021/12/18 02:32:50;;;;;;;13.00;4.78;;;;;;;7.67;97.46;103764.78;4999068;28;20049;-72
2021/12/18 02:35:29;;;;;;;10.82;5.22;;;;;;;7.70;97.60;103762.09;4998792;28;20050;-71
2021/12/18 02:38:09;;;;;;;13.75;5.57;;;;;;;7.68;97.00;103763.00;4974774;28;20129;-72
2021/12/18 02:40:52;;;;;;;9.60;5.35;;;;;;;7.66;97.99;103756.97;4995756;28;20049;-71
2021/12/18 02:43:20;;;;;;;9.93;4.18;;;;;;;7.71;97.51;103762.94;4996692;28;20057;-73
2021/12/18 02:45:46;;;;;;;14.02;4.20;;;;;;;7.71;97.11;103757.72;4998146;28;20120;-73
2021/12/18 02:48:13;;;;;;;11.82;4.53;;;;;;;7.71;97.39;103769.06;4997303;28;20124;-72
2021/12/18 02:50:41;;;;;;;10.18;3.75;;;;;;;7.70;97.43;103762.09;4996810;28;20046;-71
2021/12/18 02:53:21;;;;;;;9.63;3.63;;;;;;;7.69;97.55;103757.75;5000411;28;20045;-72
2021/12/18 02:55:54;;;;;;;12.85;3.85;;;;;;;7.76;96.84;103748.88;4999326;28;20101;-73
2021/12/18 02:58:21;;;;;;;10.68;4.30;;;;;;;7.79;96.96;103761.94;4983581;28;20050;-71
2021/12/18 03:00:48;;;;;;;11.50;3.90;;;;;;;7.77;96.92;103753.22;5009250;28;20047;-72
2021/12/18 03:03:15;;;;;;;12.93;4.03;;;;;;;7.73;97.48;103761.19;5017310;28;20120;-72
2021/12/18 03:05:52;;;;;;;6.53;3.40;;;;;;;7.68;97.40;103748.19;5021319;28;20036;-73
2021/12/18 03:08:33;;;;;;;11.48;4.55;;;;;;;7.70;97.41;103745.53;5026542;28;20057;-74
2021/12/18 03:20:07;;;;;;;10.07;3.53;;;;;;;7.62;98.39;103731.72;5000414;28;20054;-73
2021/12/18 03:25:10;;;;;;;9.65;3.55;;;;;;;7.62;98.77;103736.97;4997782;28;20049;-72
2021/12/18 03:27:38;;;;;;;8.30;4.30;;;;;;;7.62;99.34;103735.22;4997935;28;20042;-72
2021/12/18 03:30:06;;;;;;;12.90;4.88;;;;;;;7.64;98.49;103733.41;4996059;28;20092;-73
2021/12/18 03:32:32;;;;;;;9.75;3.85;;;;;;;7.66;98.78;103730.78;4998565;28;20047;-74
2021/12/18 03:35:00;;;;;;;7.65;3.63;;;;;;;7.65;98.57;103727.31;4997662;28;20073;-72
2021/12/18 03:37:28;;;;;;;12.35;3.75;;;;;;;7.65;98.99;103724.69;4981800;28;20061;-72
2021/12/18 03:39:55;;;;;;;9.43;3.10;;;;;;;7.64;99.15;103724.72;5000600;28;20038;-73
2021/12/18 03:42:21;;;;;;;9.60;3.97;;;;;;;7.63;99.14;103733.47;5001265;28;20108;-75
2021/12/18 03:44:48;;;;;;;10.02;3.42;;;;;;;7.62;99.41;103726.50;4995826;28;20044;-73
2021/12/18 03:47:15;;;;;;;11.02;4.15;;;;;;;7.60;99.02;103726.53;4999538;28;20052;-71
2021/12/18 03:49:42;;;;;;;12.02;3.53;;;;;;;7.60;99.35;103729.16;4996815;28;20053;-73
2021/12/18 03:52:09;;;;;;;12.27;3.95;;;;;;;7.57;99.68;103723.13;4999367;28;20124;-72
2021/12/18 03:54:36;;;;;;;8.20;4.03;;;;;;;7.65;99.87;103731.69;4995522;28;20563;-73
2021/12/18 03:57:03;;;;;;;10.70;4.22;;;;;;;7.70;99.73;103735.06;5001198;28;20064;-71
2021/12/18 03:59:31;;;;;;;16.35;4.47;;;;;;;7.67;100.00;103724.69;4994845;28;20140;-73
2021/12/18 04:01:58;;;;;;;12.10;5.18;;;;;;;7.67;100.00;103730.75;4999720;28;20046;-73
2021/12/18 04:04:25;;;;;;;11.63;3.55;;;;;;;7.64;100.00;103725.56;4990117;28;20096;-74
2021/12/18 04:06:52;;;;;;;11.15;4.63;;;;;;;7.67;98.87;103724.69;5001432;28;20056;-72
2021/12/18 04:09:19;;;;;;;14.45;4.95;;;;;;;7.61;99.12;103724.78;4981147;28;20050;-72
2021/12/18 04:11:47;;;;;;;8.02;3.92;;;;;;;7.56;99.38;103716.16;4999298;28;20044;-72
2021/12/18 04:14:17;;;;;;;9.52;4.10;;;;;;;7.59;99.31;103721.34;5005128;28;20116;-72
2021/12/18 04:16:45;;;;;;;9.50;4.03;;;;;;;7.60;99.48;103720.44;4996885;28;20131;-72
2021/12/18 04:19:11;;;;;;;9.48;4.30;;;;;;;7.58;99.77;103724.84;5001565;28;20046;-73
2021/12/18 04:21:38;;;;;;;12.50;4.70;;;;;;;7.62;99.75;103719.53;4998136;28;20101;-74
2021/12/18 04:24:06;;;;;;;10.90;5.65;;;;;;;7.61;99.14;103722.16;5000684;28;20125;-72
2021/12/18 04:26:33;;;;;;;10.65;4.22;;;;;;;7.62;99.56;103731.72;5001651;28;20049;-73
2021/12/18 04:29:02;;;;;;;8.65;4.07;;;;;;;7.59;99.56;103723.97;4999193;28;20206;-72
2021/12/18 04:31:29;;;;;;;9.18;3.83;;;;;;;7.65;99.57;103726.44;4997074;28;20042;-74
2021/12/18 04:33:55;;;;;;;11.95;4.60;;;;;;;7.69;99.33;103733.34;5000014;28;20045;-72
2021/12/18 04:36:22;;;;;;;11.55;4.50;;;;;;;7.64;99.00;103732.56;4996528;28;20149;-73
2021/12/18 04:38:51;;;;;;;11.02;4.70;;;;;;;7.64;98.79;103732.56;4998352;28;20037;-74
2021/12/18 04:41:22;;;;;;;9.52;3.70;;;;;;;7.63;98.98;103725.63;4998458;28;20051;-74
2021/12/18 04:43:49;;;;;;;14.30;3.85;;;;;;;7.58;99.16;103730.09;4997275;28;20049;-72
2021/12/18 04:46:19;;;;;;;10.07;4.07;;;;;;;7.59;99.27;103726.59;5011570;28;20045;-71
2021/12/18 04:48:45;;;;;;;10.60;3.80;;;;;;;7.61;99.48;103732.63;4996850;28;20042;-73
2021/12/18 04:51:12;;;;;;;14.98;4.57;;;;;;;7.60;99.38;103736.13;4998640;28;20040;-74
2021/12/18 04:53:40;;;;;;;9.90;4.38;;;;;;;7.60;98.78;103734.38;4996600;28;20145;-73
2021/12/18 04:56:07;;;;;;;8.43;3.67;;;;;;;7.61;99.38;103741.34;5015097;28;20042;-73
2021/12/18 04:58:33;;;;;;;13.18;3.58;;;;;;;7.61;99.27;103737.84;4998601;28;20073;-72
2021/12/18 05:01:01;;;;;;;14.23;4.05;;;;;;;7.61;99.55;103737.84;4974615;28;20160;-73
2021/12/18 05:03:30;;;;;;;14.00;4.70;;;;;;;7.58;99.47;103733.56;4995857;28;20461;-73
2021/12/18 05:06:01;;;;;;;11.82;5.03;;;;;;;7.64;99.47;103740.41;5000860;28;20041;-73
2021/12/18 05:08:27;;;;;;;11.18;4.25;;;;;;;7.65;98.83;103739.53;4999309;28;20057;-71
2021/12/18 05:10:54;;;;;;;11.73;4.22;;;;;;;7.62;98.95;103742.19;4999384;28;20049;-75
2021/12/18 05:13:20;;;;;;;13.55;4.97;;;;;;;7.62;99.12;103736.97;4997042;28;20053;-73
2021/12/18 05:15:47;;;;;;;14.95;5.90;;;;;;;7.62;99.43;103742.19;4995117;28;20045;-72
2021/12/18 05:18:16;;;;;;;14.88;4.85;;;;;;;7.64;98.77;103741.28;4997918;28;20049;-72
2021/12/18 05:20:44;;;;;;;10.93;5.30;;;;;;;7.62;98.85;103752.66;4996079;28;20041;-72
2021/12/18 05:23:11;;;;;;;17.10;4.78;;;;;;;7.61;99.27;103750.94;4996166;28;20064;-73
2021/12/18 05:25:38;;;;;;;13.70;5.90;;;;;;;7.60;99.60;103754.44;4996013;28;20595;-73
2021/12/18 05:28:07;;;;;;;14.60;4.80;;;;;;;7.58;99.73;103756.25;4997081;28;20041;-72
2021/12/18 05:30:34;;;;;;;18.17;5.78;;;;;;;7.63;99.89;103749.16;4983897;28;20049;-74
2021/12/18 05:33:01;;;;;;;16.45;5.07;;;;;;;7.65;99.71;103750.00;5001014;28;20077;-72
2021/12/18 05:35:30;;;;;;;16.73;4.68;;;;;;;7.62;99.84;103747.44;5003660;28;20105;-73
2021/12/18 05:38:04;;;;;;;13.73;3.85;;;;;;;7.67;100.00;103750.84;5003687;28;20070;-72
2021/12/18 05:40:32;;;;;;;11.68;5.40;;;;;;;7.58;99.79;103751.00;5009595;28;20094;-75
2021/12/18 05:42:58;;;;;;;11.77;4.88;;;;;;;7.54;100.00;103750.22;5016501;28;20050;-73
2021/12/18 05:45:25;;;;;;;13.73;6.00;;;;;;;7.51;99.97;103752.88;4998819;28;20068;-72
2021/12/18 05:47:52;;;;;;;15.52;5.53;;;;;;;7.51;99.99;103759.88;4995231;28;20042;-73
2021/12/18 05:50:20;;;;;;;15.13;5.05;;;;;;;7.49;100.00;103767.72;4998592;28;20049;-72
2021/12/18 05:52:48;;;;;;;16.50;4.20;;;;;;;7.47;100.00;103763.41;4995946;28;20160;-74
2021/12/18 05:55:18;;;;;;;13.05;3.85;;;;;;;7.49;100.00;103764.25;4997409;28;20050;-71
2021/12/18 05:57:46;;;;;;;18.42;5.80;;;;;;;7.45;100.00;103760.84;4997334;28;20053;-72
2021/12/18 06:00:14;;;;;;;12.20;4.80;;;;;;;7.46;100.00;103764.31;4991680;28;20043;-72
2021/12/18 06:02:40;;;;;;;12.20;4.55;;;;;;;7.44;100.00;103766.09;4994149;28;20493;-72
2021/12/18 06:05:08;;;;;;;10.05;4.35;;;;;;;7.44;100.00;103760.84;4998334;28;20099;-73
2021/12/18 06:07:51;;;;;;;15.48;5.32;;;;;;;7.48;100.00;103766.00;5012081;28;20062;-73
2021/12/18 06:10:28;;;;;;;13.63;5.10;;;;;;;7.48;100.00;103765.16;4977350;28;20192;-73
2021/12/18 06:12:55;;;;;;;11.38;3.90;;;;;;;7.49;100.00;103764.25;4994135;28;20050;-73
2021/12/18 06:15:21;;;;;;;13.40;4.05;;;;;;;7.48;100.00;103759.91;4996303;28;20038;-73
2021/12/18 06:17:48;;;;;;;13.75;5.32;;;;;;;7.47;100.00;103764.28;4978164;28;20038;-72
2021/12/18 06:20:16;;;;;;;14.77;4.28;;;;;;;7.48;100.00;103760.75;4996742;28;20048;-72
2021/12/18 06:22:42;;;;;;;9.35;3.88;;;;;;;7.52;100.00;103766.81;5000306;28;20042;-72
2021/12/18 06:25:09;;;;;;;17.90;5.60;;;;;;;7.55;100.00;103759.75;4991920;28;20057;-75
2021/12/18 06:27:37;;;;;;;8.88;3.67;;;;;;;7.50;100.00;103761.59;4998110;28;20050;-72
2021/12/18 06:30:06;;;;;;;15.70;4.13;;;;;;;7.54;100.00;103759.78;4995131;28;20099;-72
2021/12/18 06:32:32;;;;;;;11.68;4.65;;;;;;;7.61;100.00;103761.41;4994928;28;20037;-72
2021/12/18 06:34:59;;;;;;;15.23;4.75;;;;;;;7.73;100.00;103758.56;4995895;28;20041;-75
2021/12/18 06:37:26;;;;;;;12.07;4.32;;;;;;;7.73;100.00;103761.19;4984631;28;20133;-73
2021/12/18 06:39:53;;;;;;;13.52;4.13;;;;;;;7.73;100.00;103756.78;4998635;28;20045;-72
2021/12/18 06:42:20;;;;;;;13.75;5.10;;;;;;;7.63;100.00;103765.75;5001851;28;20041;-73
2021/12/18 06:44:48;;;;;;;14.52;6.15;;;;;;;7.58;100.00;103759.72;5002638;28;20041;-72
2021/12/18 06:47:15;;;;;;;17.27;5.15;;;;;;;7.69;100.00;103756.88;5012152;28;20073;-74
2021/12/18 06:49:43;;;;;;;12.77;4.28;;;;;;;7.67;100.00;103751.69;5002510;28;20121;-71
2021/12/18 06:52:12;;;;;;;15.43;5.13;;;;;;;7.69;100.00;103751.66;4982010;28;20395;-73
2021/12/18 06:54:39;;;;;;;11.77;5.43;;;;;;;7.72;100.00;103747.22;5017862;28;20069;-73
2021/12/18 06:57:06;;;;;;;9.73;3.97;;;;;;;7.77;100.00;103747.13;4996155;28;20039;-73
2021/12/18 06:59:33;;;;;;;7.93;3.78;;;;;;;7.79;100.00;103750.56;5001252;28;20498;-74
2021/12/18 07:02:03;;;;;;;14.05;4.57;;;;;;;7.79;100.00;103737.50;4999140;28;20498;-74
2021/12/18 07:04:30;;;;;;;10.75;4.43;;;;;;;7.81;100.00;103740.94;4983175;28;20046;-72
2021/12/18 07:06:57;;;;;;;19.67;4.97;;;;;;;7.82;100.00;103735.69;5000602;28;20053;-73
2021/12/18 07:09:23;;;;;;;10.98;4.47;;;;;;;7.73;100.00;103741.09;4985534;28;20137;-74
2021/12/18 07:11:50;;;;;;;7.72;2.83;;;;;;;7.68;100.00;103742.06;4999952;28;20078;-73
2021/12/18 07:14:17;;;;;;;8.50;3.35;;;;;;;7.73;100.00;103740.25;5013785;28;20049;-74
2021/12/18 07:16:44;;;;;;;11.55;4.35;;;;;;;7.75;100.00;103743.69;4996926;28;20113;-74
2021/12/18 07:19:13;;;;;;;12.05;3.53;;;;;;;7.72;100.00;103748.97;4999736;28;21137;-73
2021/12/18 07:21:40;;;;;;;8.38;3.35;;;;;;;7.77;100.00;103753.22;5006050;28;20045;-75
2021/12/18 07:24:10;;;;;;;4.70;2.60;;;;;;;7.76;100.00;103755.84;4999052;28;20042;-71
2021/12/18 07:26:37;;;;;;;7.78;3.33;;;;;;;7.74;100.00;103748.06;5005241;28;20054;-73
2021/12/18 07:29:04;;;;;;;9.55;3.60;;;;;;;7.76;100.00;103746.28;5001484;28;20042;-72
2021/12/18 07:31:31;;;;;;;10.95;3.58;;;;;;;7.75;100.00;103746.31;4985392;28;20435;-75
2021/12/18 07:34:00;;;;;;;10.27;4.50;;;;;;;7.76;100.00;103743.66;4998217;28;20074;-74
2021/12/18 07:36:28;;;;;;;9.57;3.30;;;;;;;7.79;100.00;103745.34;4998259;28;20077;-73
2021/12/18 07:38:55;;;;;;;6.88;3.05;;;;;;;7.86;100.00;103746.94;4993046;28;20125;-73
2021/12/18 07:41:22;;;;;;;13.35;3.75;;;;;;;7.86;100.00;103760.91;5001026;28;20092;-74
2021/12/18 07:43:48;;;;;;;6.35;3.53;;;;;;;7.89;100.00;103754.75;4994996;28;20058;-74
2021/12/18 07:46:16;;;;;;;6.07;2.47;;;;;;;7.93;100.00;103754.66;4999223;28;20038;-73
2021/12/18 07:48:42;;;;;;;7.75;3.30;;;;;;;7.90;99.89;103748.63;5002623;28;20056;-74
2021/12/18 07:51:09;;;;;;;10.05;4.20;;;;;;;7.77;100.00;103747.13;4979359;28;20737;-73
2021/12/18 07:53:38;;;;;;;8.30;3.88;;;;;;;7.77;99.76;103752.34;5013525;28;20057;-75
2021/12/18 07:56:05;;;;;;;9.02;3.33;;;;;;;7.78;100.00;103754.97;4998976;28;20050;-73
2021/12/18 07:58:32;;;;;;;8.32;3.45;;;;;;;7.80;99.92;103752.31;4993561;28;20077;-73
2021/12/18 08:00:59;;;;;;;8.18;3.88;;;;;;;7.78;99.47;103756.69;4995454;28;20049;-74
2021/12/18 08:03:28;;;;;;;12.00;4.70;;;;;;;7.78;99.89;103754.09;4990915;28;20046;-72
2021/12/18 08:05:57;;;;;;;8.23;3.50;;;;;;;7.76;99.63;103750.63;5000992;28;20077;-73
2021/12/18 08:08:29;;;;;;;8.23;3.35;;;;;;;7.72;100.00;103757.69;5002936;28;20081;-72
2021/12/18 08:10:57;;;;;;;;;;;;;;;7.72;99.84;103749.81;5004037;28;20038;-70
2021/12/18 08:13:23;;;;;;;7.70;2.97;;;;;;;7.76;99.50;103754.13;5010018;28;19925;-73
2021/12/18 08:15:51;;;;;;;5.45;2.58;;;;;;;7.75;99.48;103754.16;5011214;28;20009;-72
2021/12/18 08:18:17;;;;;;;10.55;4.07;;;;;;;7.77;100.00;103749.75;5009107;28;20040;-73
2021/12/18 08:20:45;;;;;;;8.93;3.97;;;;;;;7.86;99.54;103749.56;5002169;28;20038;-72
2021/12/18 08:23:12;;;;;;;8.52;3.42;;;;;;;7.91;100.00;103758.19;4998526;28;20037;-71
2021/12/18 08:25:40;;;;;;;7.07;3.88;;;;;;;7.94;100.00;103754.59;5003465;28;20500;-73
2021/12/18 08:28:08;;;;;;;9.80;3.92;;;;;;;7.99;99.60;103755.38;4995617;28;20073;-72
2021/12/18 08:30:36;;;;;;;10.73;3.22;;;;;;;7.99;99.41;103750.16;4992936;28;20548;-74
2021/12/18 08:33:04;;;;;;;8.70;3.22;;;;;;;8.03;99.87;103738.72;4996998;28;21179;-73
2021/12/18 08:35:32;;;;;;;11.80;3.47;;;;;;;8.03;99.63;103743.94;4999181;28;20050;-73
2021/12/18 08:38:02;;;;;;;15.75;3.97;;;;;;;8.05;99.36;103744.78;4994519;28;20050;-73
2021/12/18 08:40:29;;;;;;;7.15;3.20;;;;;;;7.94;99.87;103745.91;5013073;28;20096;-72
2021/12/18 08:42:56;;;;;;;7.38;2.85;;;;;;;7.92;99.51;103742.44;4994780;28;20045;-72
2021/12/18 08:45:25;;;;;;;9.77;3.40;;;;;;;7.85;99.73;103739.97;4996004;28;20042;-73
2021/12/18 08:47:52;;;;;;;7.07;3.15;;;;;;;7.81;99.67;103743.56;4998548;28;20133;-73
2021/12/18 08:50:20;;;;;;;6.25;2.53;;;;;;;7.86;99.52;103746.94;4998015;28;20514;-73
2021/12/18 08:52:48;;;;;;;11.13;3.10;;;;;;;7.80;99.70;103749.69;4998639;28;20072;-73
2021/12/18 08:55:17;;;;;;;7.20;2.85;;;;;;;7.78;99.66;103748.84;4997574;28;20457;-73
2021/12/18 08:57:44;;;;;;;6.57;2.42;;;;;;;7.80;99.30;103752.31;4997390;28;20046;-73
2021/12/18 09:00:17;;;;;;;9.38;3.55;;;;;;;7.93;99.05;103753.75;4996696;28;20052;-73
2021/12/18 09:02:48;;;;;;;8.70;2.78;;;;;;;7.93;99.43;103755.50;5001093;28;20049;-71
2021/12/18 09:05:16;;;;;;;6.13;2.65;;;;;;;8.02;99.31;103754.47;4978482;28;20042;-72
2021/12/18 09:07:43;;;;;;;8.95;3.03;;;;;;;7.95;99.24;103745.88;4997391;28;20053;-72
2021/12/18 09:10:12;;;;;;;7.22;2.88;;;;;;;7.92;99.67;103747.69;4998312;28;20033;-73
2021/12/18 09:12:39;;;;;;;9.02;3.00;;;;;;;7.93;99.18;103752.03;4999351;28;20108;-72
2021/12/18 09:15:07;;;;;;;6.43;2.90;;;;;;;7.90;99.66;103743.38;4996945;28;20046;-73
2021/12/18 09:17:34;;;;;;;8.25;3.45;;;;;;;7.85;99.61;103750.44;5011485;28;20049;-73
2021/12/18 09:20:02;;;;;;;6.82;2.70;;;;;;;7.86;100.00;103747.81;4998314;28;20129;-74
2021/12/18 09:22:28;;;;;;;5.90;2.90;;;;;;;7.90;100.00;103753.84;5000074;28;20042;-72
2021/12/18 09:24:55;;;;;;;7.07;2.00;;;;;;;8.00;99.94;103751.00;5003247;28;20432;-72
2021/12/18 09:27:23;;;;;;;3.90;2.03;;;;;;;8.09;99.92;103749.03;5000890;28;20046;-73
2021/12/18 09:29:52;;;;;;;6.55;2.25;;;;;;;8.06;99.34;103753.47;5000865;28;20617;-73
2021/12/18 09:32:18;;;;;;;3.40;1.52;;;;;;;8.06;99.08;103756.97;4983413;28;20141;-73
2021/12/18 09:34:45;;;;;;;5.28;2.10;;;;;;;8.09;99.24;103756.91;4995454;28;20518;-71
2021/12/18 09:37:14;;;;;;;2.80;1.73;;;;;;;8.19;98.62;103757.63;4995946;28;20038;-74
2021/12/18 09:39:41;;;;;;;5.38;2.08;;;;;;;8.33;98.66;103763.41;5000155;28;20064;-72
2021/12/18 09:42:08;;;;;;;5.32;1.77;;;;;;;8.36;96.69;103755.50;4993071;28;20041;-72
2021/12/18 09:44:37;;;;;;;2.88;1.38;;;;;;;8.41;96.83;103759.69;5010855;28;20038;-73
2021/12/18 09:47:05;;;;;;;8.85;1.65;;;;;;;8.33;95.63;103751.16;4995764;28;20103;-73
2021/12/18 09:49:32;;;;;;;7.60;2.17;;;;;;;8.19;96.03;103755.84;4996300;28;20046;-73
2021/12/18 09:51:59;;;;;;;3.42;1.50;;;;;;;8.18;96.54;103746.25;4995759;28;20034;-74
2021/12/18 09:54:27;;;;;;;8.45;2.03;;;;;;;8.14;96.49;103747.22;4991644;28;20053;-72
2021/12/18 09:56:54;;;;;;;6.55;2.00;;;;;;;8.15;97.16;103748.09;4997094;28;20053;-71
2021/12/18 09:59:21;;;;;;;4.35;1.85;;;;;;;8.15;96.84;103738.50;4978075;28;20171;-70
2021/12/18 10:01:48;;;;;;;10.57;2.03;;;;;;;8.13;97.08;103737.63;4983221;28;20045;-71
2021/12/18 10:04:31;;;;;;;4.93;1.98;;;;;;;8.20;98.00;103731.38;4994526;28;20096;-72
2021/12/18 10:06:59;;;;;;;2.90;1.42;;;;;;;8.13;97.26;103735.00;4981532;28;20054;-73
2021/12/18 10:09:34;;;;;;;8.25;1.85;;;;;;;8.15;96.84;103735.88;5000145;28;20068;-73
2021/12/18 10:12:03;;;;;;;4.55;1.90;;;;;;;8.27;97.76;103735.59;5000791;28;20544;-71
2021/12/18 10:14:35;;;;;;;4.85;2.30;;;;;;;8.36;97.51;103727.53;5000426;28;20056;-70
2021/12/18 10:17:04;;;;;;;2.65;1.27;;;;;;;8.47;97.72;103732.50;5000452;28;20053;-72
2021/12/18 10:19:32;;;;;;;5.80;2.10;;;;;;;8.49;97.40;103723.75;4998490;28;20052;-71
2021/12/18 10:22:02;;;;;;;2.47;1.05;;;;;;;8.57;97.39;103724.44;4999820;28;20042;-69
2021/12/18 10:24:32;;;;;;;5.53;2.25;;;;;;;8.43;95.80;103721.25;5000348;28;20128;-73
2021/12/18 10:27:00;;;;;;;6.15;2.40;;;;;;;8.39;96.32;103719.59;5016419;28;20054;-72
2021/12/18 10:29:30;;;;;;;6.68;2.15;;;;;;;8.26;96.22;103722.53;5009943;28;20155;-72
2021/12/18 10:31:57;;;;;;;7.25;2.63;;;;;;;8.11;96.84;103726.31;4998427;28;20460;-72
2021/12/18 10:34:25;;;;;;;8.60;2.90;;;;;;;8.03;98.48;103725.63;5001155;28;20575;-71
2021/12/18 10:37:13;;;;;;;6.78;2.25;;;;;;;7.93;98.45;103723.25;5000215;28;20049;-72
2021/12/18 10:39:45;;;;;;;6.88;3.03;;;;;;;7.94;99.11;103723.19;5003255;28;20061;-73
2021/12/18 10:42:16;;;;;;;6.00;2.63;;;;;;;7.93;99.25;103723.25;5001847;28;20052;-74
2021/12/18 10:44:56;;;;;;;5.68;1.83;;;;;;;8.06;99.18;103725.56;4999151;28;20073;-73
2021/12/18 10:47:23;;;;;;;5.35;1.92;;;;;;;8.12;98.52;103729.81;4999324;28;20092;-73
2021/12/18 10:49:53;;;;;;;8.88;3.33;;;;;;;8.24;97.72;103719.97;5023973;28;20552;-71
2021/12/18 10:52:37;;;;;;;7.20;2.40;;;;;;;8.34;97.28;103710.97;5014824;28;20106;-74
2021/12/18 10:55:06;;;;;;;6.20;2.63;;;;;;;8.23;97.16;103713.00;5020364;28;20105;-72
2021/12/18 10:57:32;;;;;;;5.10;1.85;;;;;;;8.07;97.48;103706.34;5000374;28;20038;-74
2021/12/18 10:59:59;;;;;;;5.40;1.25;;;;;;;8.10;97.03;103708.03;5013564;28;20050;-73
2021/12/18 11:02:28;;;;;;;2.97;1.52;;;;;;;8.07;97.71;103703.72;4998466;28;20054;-71
2021/12/18 11:05:14;;;;;;;8.27;1.95;;;;;;;8.13;97.72;103703.59;4991792;28;20046;-74
2021/12/18 11:08:08;;;;;;;4.45;1.45;;;;;;;7.99;97.90;103704.78;4981994;28;20610;-71
2021/12/18 11:10:53;;;;;;;2.90;1.13;;;;;;;7.96;98.07;103700.47;5004097;28;20053;-71
2021/12/18 11:16:06;;;;;;;2.85;1.67;;;;;;;8.02;98.27;103700.34;4978871;28;20042;-72
2021/12/18 11:18:35;;;;;;;4.47;2.17;;;;;;;8.13;98.64;103700.09;4989511;28;20039;-71
2021/12/18 11:21:03;;;;;;;2.58;1.50;;;;;;;8.14;98.15;103694.84;5001342;28;20092;-71
2021/12/18 11:23:37;;;;;;;1.15;0.77;;;;;;;8.15;97.94;103688.75;4984680;28;20164;-74
2021/12/18 11:26:05;;;;;;;3.22;1.67;;;;;;;8.18;97.28;103691.28;5002626;28;20041;-73
2021/12/18 11:28:35;;;;;;;4.28;1.52;;;;;;;8.26;97.40;103691.97;5000755;28;20092;-71
2021/12/18 11:31:03;;;;;;;7.18;1.83;;;;;;;8.26;96.90;103689.34;4999039;28;20045;-73
2021/12/18 11:33:31;;;;;;;3.65;1.35;;;;;;;8.40;95.33;103689.91;4998688;28;20095;-75
2021/12/18 11:35:59;;;;;;;3.15;1.35;;;;;;;8.39;95.96;103682.94;4983113;28;20053;-73
2021/12/18 11:38:26;;;;;;;1.77;0.85;;;;;;;8.44;96.01;103683.69;5001201;28;20052;-72
2021/12/18 11:40:53;;;;;;;2.42;1.35;;;;;;;8.59;94.87;103680.69;4997829;28;20053;-72
2021/12/18 11:43:35;;;;;;;1.92;0.80;;;;;;;8.64;94.70;103678.81;5000545;28;20088;-71
2021/12/18 11:46:02;;;;;;;2.30;1.00;;;;;;;8.66;94.68;103674.38;4991566;28;20081;-71
2021/12/18 11:48:52;;;;;;;2.53;1.35;;;;;;;8.35;94.40;103683.03;4997346;28;20384;-73
2021/12/18 11:51:18;;;;;;;2.63;1.17;;;;;;;8.11;95.17;103681.81;4998125;28;20042;-71
2021/12/18 11:53:45;;;;;;;5.55;2.08;;;;;;;8.17;95.75;103681.69;4997630;28;20064;-72
2021/12/18 11:56:11;;;;;;;3.65;1.42;;;;;;;8.21;96.13;103678.13;4996807;28;20042;-73
2021/12/18 11:58:44;;;;;;;4.50;1.90;;;;;;;8.27;96.26;103675.34;5000446;28;20046;-73
2021/12/18 12:01:18;;;;;;;4.93;2.65;;;;;;;8.20;96.11;103665.91;4997118;28;20504;-72
2021/12/18 12:03:48;;;;;;;3.45;1.73;;;;;;;8.09;95.93;103667.88;4997988;28;20053;-71